sensor_id;sensor_type;location;lat;lon;timestamp;temperature;humidity
2579;DHT22;1299;48.282;14.398;2023-06-22T00:01:13;21.10;99.90
2579;DHT22;1299;48.282;14.398;2023-06-22T00:03:41;21.00;99.90
2579;DHT22;1299;48.282;14.398;2023-06-22T00:06:08;21.00;99.90
2579;DHT22;1299;48.282;14.398;2023-06-22T00:08:35;20.90;99.90
2579;DHT22;1299;48.282;14.398;2023-06-22T00:11:02;20.90;99.90
2579;DHT22;1299;48.282;14.398;2023-06-22T00:13:29;20.90;99.90
2579;DHT22;1299;48.282;14.398;2023-06-22T00:15:56;20.90;99.90
2579;DHT22;1299;48.282;14.398;2023-06-22T00:18:23;20.90;99.90
2579;DHT22;1299;48.282;14.398;2023-06-22T00:20:54;20.90;99.90
2579;DHT22;1299;48.282;14.398;2023-06-22T00:23:24;20.80;99.90
2579;DHT22;1299;48.282;14.398;2023-06-22T00:25:51;20.80;99.90
2579;DHT22;1299;48.282;14.398;2023-06-22T00:28:18;20.70;99.90
2579;DHT22;1299;48.282;14.398;2023-06-22T00:30:45;20.70;99.90
2579;DHT22;1299;48.282;14.398;2023-06-22T00:33:13;20.70;99.90
2579;DHT22;1299;48.282;14.398;2023-06-22T00:35:41;20.60;99.90
2579;DHT22;1299;48.282;14.398;2023-06-22T00:38:10;20.50;99.90
2579;DHT22;1299;48.282;14.398;2023-06-22T00:40:37;20.50;99.90
2579;DHT22;1299;48.282;14.398;2023-06-22T00:43:06;20.50;99.90
2579;DHT22;1299;48.282;14.398;2023-06-22T00:45:33;20.50;99.90
2579;DHT22;1299;48.282;14.398;2023-06-22T00:48:01;20.40;99.90
2579;DHT22;1299;48.282;14.398;2023-06-22T00:50:29;20.40;99.90
2579;DHT22;1299;48.282;14.398;2023-06-22T00:53:00;20.40;99.90
2579;DHT22;1299;48.282;14.398;2023-06-22T00:55:29;20.40;99.90
2579;DHT22;1299;48.282;14.398;2023-06-22T00:57:56;20.30;99.90
2579;DHT22;1299;48.282;14.398;2023-06-22T01:00:24;20.40;99.90
2579;DHT22;1299;48.282;14.398;2023-06-22T01:02:52;20.30;99.90
2579;DHT22;1299;48.282;14.398;2023-06-22T01:05:20;20.30;99.90
2579;DHT22;1299;48.282;14.398;2023-06-22T01:08:06;20.20;99.90
2579;DHT22;1299;48.282;14.398;2023-06-22T01:10:41;20.20;99.90
2579;DHT22;1299;48.282;14.398;2023-06-22T01:13:16;20.20;99.90
2579;DHT22;1299;48.282;14.398;2023-06-22T01:15:48;20.20;99.90
2579;DHT22;1299;48.282;14.398;2023-06-22T01:18:17;20.10;99.90
2579;DHT22;1299;48.282;14.398;2023-06-22T01:20:45;20.20;99.90
2579;DHT22;1299;48.282;14.398;2023-06-22T01:23:20;20.10;99.90
2579;DHT22;1299;48.282;14.398;2023-06-22T01:26:02;20.10;99.90
2579;DHT22;1299;48.282;14.398;2023-06-22T01:28:43;20.00;99.90
2579;DHT22;1299;48.282;14.398;2023-06-22T01:31:14;20.00;99.90
2579;DHT22;1299;48.282;14.398;2023-06-22T01:33:45;20.00;99.90
2579;DHT22;1299;48.282;14.398;2023-06-22T01:36:13;20.00;99.90
2579;DHT22;1299;48.282;14.398;2023-06-22T01:38:42;20.00;99.90
2579;DHT22;1299;48.282;14.398;2023-06-22T01:41:10;20.00;99.90
2579;DHT22;1299;48.282;14.398;2023-06-22T01:43:38;20.00;99.90
2579;DHT22;1299;48.282;14.398;2023-06-22T01:46:07;20.00;99.90
2579;DHT22;1299;48.282;14.398;2023-06-22T01:48:35;20.00;99.90
2579;DHT22;1299;48.282;14.398;2023-06-22T01:51:02;19.90;99.90
2579;DHT22;1299;48.282;14.398;2023-06-22T01:53:29;19.90;99.90
2579;DHT22;1299;48.282;14.398;2023-06-22T01:55:57;19.90;99.90
2579;DHT22;1299;48.282;14.398;2023-06-22T01:58:26;19.90;99.90
2579;DHT22;1299;48.282;14.398;2023-06-22T02:00:58;19.90;99.90
2579;DHT22;1299;48.282;14.398;2023-06-22T02:03:33;19.90;99.90
2579;DHT22;1299;48.282;14.398;2023-06-22T02:06:04;19.90;99.90
2579;DHT22;1299;48.282;14.398;2023-06-22T02:08:38;19.90;99.90
2579;DHT22;1299;48.282;14.398;2023-06-22T02:11:08;19.90;99.90
2579;DHT22;1299;48.282;14.398;2023-06-22T02:13:37;19.90;99.90
2579;DHT22;1299;48.282;14.398;2023-06-22T02:16:08;19.90;99.90
2579;DHT22;1299;48.282;14.398;2023-06-22T02:18:37;19.90;99.90
2579;DHT22;1299;48.282;14.398;2023-06-22T02:21:05;19.90;99.90
2579;DHT22;1299;48.282;14.398;2023-06-22T02:23:33;19.90;99.90
2579;DHT22;1299;48.282;14.398;2023-06-22T02:26:01;19.90;99.90
2579;DHT22;1299;48.282;14.398;2023-06-22T02:28:28;19.90;99.90
2579;DHT22;1299;48.282;14.398;2023-06-22T02:30:55;19.90;99.90
2579;DHT22;1299;48.282;14.398;2023-06-22T02:33:22;19.80;99.90
2579;DHT22;1299;48.282;14.398;2023-06-22T02:35:51;19.80;99.90
2579;DHT22;1299;48.282;14.398;2023-06-22T02:38:18;19.80;99.90
2579;DHT22;1299;48.282;14.398;2023-06-22T02:40:46;19.80;99.90
2579;DHT22;1299;48.282;14.398;2023-06-22T02:43:13;19.80;99.90
2579;DHT22;1299;48.282;14.398;2023-06-22T02:45:40;19.80;99.90
2579;DHT22;1299;48.282;14.398;2023-06-22T02:48:07;19.80;99.90
2579;DHT22;1299;48.282;14.398;2023-06-22T02:50:34;19.80;99.90
2579;DHT22;1299;48.282;14.398;2023-06-22T02:53:02;19.70;99.90
2579;DHT22;1299;48.282;14.398;2023-06-22T02:55:30;19.70;99.90
2579;DHT22;1299;48.282;14.398;2023-06-22T02:57:57;19.70;99.90
2579;DHT22;1299;48.282;14.398;2023-06-22T03:00:25;19.70;99.90
2579;DHT22;1299;48.282;14.398;2023-06-22T03:02:56;19.70;99.90
2579;DHT22;1299;48.282;14.398;2023-06-22T03:05:24;19.70;99.90
2579;DHT22;1299;48.282;14.398;2023-06-22T03:07:51;19.70;99.90
2579;DHT22;1299;48.282;14.398;2023-06-22T03:10:20;19.70;99.90
2579;DHT22;1299;48.282;14.398;2023-06-22T03:12:47;19.80;99.90
2579;DHT22;1299;48.282;14.398;2023-06-22T03:15:14;19.80;99.90
2579;DHT22;1299;48.282;14.398;2023-06-22T03:17:42;19.80;99.90
2579;DHT22;1299;48.282;14.398;2023-06-22T03:20:10;19.80;99.90
2579;DHT22;1299;48.282;14.398;2023-06-22T03:22:38;19.80;99.90
2579;DHT22;1299;48.282;14.398;2023-06-22T03:25:06;19.70;99.90
2579;DHT22;1299;48.282;14.398;2023-06-22T03:27:38;19.80;99.90
2579;DHT22;1299;48.282;14.398;2023-06-22T03:30:06;19.90;99.90
2579;DHT22;1299;48.282;14.398;2023-06-22T03:32:34;19.90;99.90
2579;DHT22;1299;48.282;14.398;2023-06-22T03:35:01;19.80;99.90
2579;DHT22;1299;48.282;14.398;2023-06-22T03:37:28;19.90;99.90
2579;DHT22;1299;48.282;14.398;2023-06-22T03:39:55;19.90;99.90
2579;DHT22;1299;48.282;14.398;2023-06-22T03:42:22;19.90;99.90
2579;DHT22;1299;48.282;14.398;2023-06-22T03:44:51;20.00;99.90
2579;DHT22;1299;48.282;14.398;2023-06-22T03:47:18;20.00;99.90
2579;DHT22;1299;48.282;14.398;2023-06-22T03:49:45;20.00;99.90
2579;DHT22;1299;48.282;14.398;2023-06-22T03:52:12;20.00;99.90
2579;DHT22;1299;48.282;14.398;2023-06-22T03:54:39;20.00;99.90
2579;DHT22;1299;48.282;14.398;2023-06-22T03:57:06;19.80;99.90
2579;DHT22;1299;48.282;14.398;2023-06-22T03:59:33;20.00;99.90
2579;DHT22;1299;48.282;14.398;2023-06-22T04:02:02;20.00;99.90
2579;DHT22;1299;48.282;14.398;2023-06-22T04:04:29;20.00;99.90
2579;DHT22;1299;48.282;14.398;2023-06-22T04:06:56;20.10;99.90
2579;DHT22;1299;48.282;14.398;2023-06-22T04:09:23;20.20;99.90
2579;DHT22;1299;48.282;14.398;2023-06-22T04:11:50;20.30;99.90
2579;DHT22;1299;48.282;14.398;2023-06-22T04:14:17;20.30;99.90
2579;DHT22;1299;48.282;14.398;2023-06-22T04:16:44;20.30;99.90
2579;DHT22;1299;48.282;14.398;2023-06-22T04:19:12;20.40;99.90
2579;DHT22;1299;48.282;14.398;2023-06-22T04:21:42;20.40;99.90
2579;DHT22;1299;48.282;14.398;2023-06-22T04:24:10;20.50;99.90
2579;DHT22;1299;48.282;14.398;2023-06-22T04:26:37;20.50;99.90
2579;DHT22;1299;48.282;14.398;2023-06-22T04:29:04;20.50;99.90
2579;DHT22;1299;48.282;14.398;2023-06-22T04:31:31;20.60;99.90
2579;DHT22;1299;48.282;14.398;2023-06-22T04:34:03;20.60;99.90
2579;DHT22;1299;48.282;14.398;2023-06-22T04:36:34;20.70;99.90
2579;DHT22;1299;48.282;14.398;2023-06-22T04:39:04;20.80;99.90
2579;DHT22;1299;48.282;14.398;2023-06-22T04:41:32;20.80;99.90
2579;DHT22;1299;48.282;14.398;2023-06-22T04:44:08;20.90;99.90
2579;DHT22;1299;48.282;14.398;2023-06-22T04:46:36;21.10;99.90
2579;DHT22;1299;48.282;14.398;2023-06-22T04:49:05;21.00;99.90
2579;DHT22;1299;48.282;14.398;2023-06-22T04:51:41;21.10;99.90
2579;DHT22;1299;48.282;14.398;2023-06-22T04:54:09;21.10;99.90
2579;DHT22;1299;48.282;14.398;2023-06-22T04:56:36;21.10;99.90
2579;DHT22;1299;48.282;14.398;2023-06-22T04:59:06;20.70;99.90
2579;DHT22;1299;48.282;14.398;2023-06-22T05:01:33;20.70;99.90
2579;DHT22;1299;48.282;14.398;2023-06-22T05:04:00;21.30;99.90
2579;DHT22;1299;48.282;14.398;2023-06-22T05:06:28;21.60;99.90
2579;DHT22;1299;48.282;14.398;2023-06-22T05:08:57;22.00;99.90
2579;DHT22;1299;48.282;14.398;2023-06-22T05:11:25;22.30;99.90
2579;DHT22;1299;48.282;14.398;2023-06-22T05:13:52;22.40;99.90
2579;DHT22;1299;48.282;14.398;2023-06-22T05:16:20;22.20;99.90
2579;DHT22;1299;48.282;14.398;2023-06-22T05:18:51;22.50;99.90
2579;DHT22;1299;48.282;14.398;2023-06-22T05:21:21;22.90;99.90
2579;DHT22;1299;48.282;14.398;2023-06-22T05:23:49;23.30;99.90
2579;DHT22;1299;48.282;14.398;2023-06-22T05:26:18;23.60;99.90
2579;DHT22;1299;48.282;14.398;2023-06-22T05:28:45;23.90;99.90
2579;DHT22;1299;48.282;14.398;2023-06-22T05:31:13;24.10;99.90
2579;DHT22;1299;48.282;14.398;2023-06-22T05:33:40;24.20;99.90
2579;DHT22;1299;48.282;14.398;2023-06-22T05:36:07;23.90;99.90
2579;DHT22;1299;48.282;14.398;2023-06-22T05:38:35;23.70;99.90
2579;DHT22;1299;48.282;14.398;2023-06-22T05:41:03;24.00;99.90
2579;DHT22;1299;48.282;14.398;2023-06-22T05:43:31;23.90;99.90
2579;DHT22;1299;48.282;14.398;2023-06-22T05:46:01;24.30;99.90
2579;DHT22;1299;48.282;14.398;2023-06-22T05:48:28;24.60;99.90
2579;DHT22;1299;48.282;14.398;2023-06-22T05:50:55;25.00;99.90
2579;DHT22;1299;48.282;14.398;2023-06-22T05:53:22;25.30;99.90
2579;DHT22;1299;48.282;14.398;2023-06-22T05:55:49;24.80;99.90
2579;DHT22;1299;48.282;14.398;2023-06-22T05:58:16;25.10;99.90
2579;DHT22;1299;48.282;14.398;2023-06-22T06:00:44;25.40;99.90
2579;DHT22;1299;48.282;14.398;2023-06-22T06:03:12;25.40;99.90
2579;DHT22;1299;48.282;14.398;2023-06-22T06:05:43;25.50;99.90
2579;DHT22;1299;48.282;14.398;2023-06-22T06:08:10;25.30;99.90
2579;DHT22;1299;48.282;14.398;2023-06-22T06:10:38;25.00;99.90
2579;DHT22;1299;48.282;14.398;2023-06-22T06:13:05;25.00;99.90
2579;DHT22;1299;48.282;14.398;2023-06-22T06:15:34;25.30;99.90
2579;DHT22;1299;48.282;14.398;2023-06-22T06:18:02;25.50;99.90
2579;DHT22;1299;48.282;14.398;2023-06-22T06:20:31;25.80;99.90
2579;DHT22;1299;48.282;14.398;2023-06-22T06:22:58;26.30;99.90
2579;DHT22;1299;48.282;14.398;2023-06-22T06:25:25;25.80;99.90
2579;DHT22;1299;48.282;14.398;2023-06-22T06:27:52;26.00;99.90
2579;DHT22;1299;48.282;14.398;2023-06-22T06:30:20;26.10;99.90
2579;DHT22;1299;48.282;14.398;2023-06-22T06:32:48;26.40;99.90
2579;DHT22;1299;48.282;14.398;2023-06-22T06:35:16;27.00;99.90
2579;DHT22;1299;48.282;14.398;2023-06-22T06:37:46;27.00;99.90
2579;DHT22;1299;48.282;14.398;2023-06-22T06:40:14;26.10;99.90
2579;DHT22;1299;48.282;14.398;2023-06-22T06:42:42;26.60;99.90
2579;DHT22;1299;48.282;14.398;2023-06-22T06:45:11;26.80;99.90
2579;DHT22;1299;48.282;14.398;2023-06-22T06:47:38;26.70;99.90
2579;DHT22;1299;48.282;14.398;2023-06-22T06:50:06;27.00;99.90
2579;DHT22;1299;48.282;14.398;2023-06-22T06:52:35;27.00;99.90
2579;DHT22;1299;48.282;14.398;2023-06-22T06:55:02;26.80;99.90
2579;DHT22;1299;48.282;14.398;2023-06-22T06:57:33;27.50;99.90
2579;DHT22;1299;48.282;14.398;2023-06-22T07:00:00;27.90;99.90
2579;DHT22;1299;48.282;14.398;2023-06-22T07:02:32;28.00;99.90
2579;DHT22;1299;48.282;14.398;2023-06-22T07:04:59;28.20;99.90
2579;DHT22;1299;48.282;14.398;2023-06-22T07:07:26;27.40;99.90
2579;DHT22;1299;48.282;14.398;2023-06-22T07:09:54;27.70;99.90
2579;DHT22;1299;48.282;14.398;2023-06-22T07:12:21;27.60;99.90
2579;DHT22;1299;48.282;14.398;2023-06-22T07:14:48;27.70;99.90
2579;DHT22;1299;48.282;14.398;2023-06-22T07:17:15;27.60;99.90
2579;DHT22;1299;48.282;14.398;2023-06-22T07:19:42;28.00;99.90
2579;DHT22;1299;48.282;14.398;2023-06-22T07:22:09;28.20;99.90
2579;DHT22;1299;48.282;14.398;2023-06-22T07:24:36;28.50;99.90
2579;DHT22;1299;48.282;14.398;2023-06-22T07:27:05;27.90;99.90
2579;DHT22;1299;48.282;14.398;2023-06-22T07:29:33;28.10;99.90
2579;DHT22;1299;48.282;14.398;2023-06-22T07:32:01;28.30;99.90
2579;DHT22;1299;48.282;14.398;2023-06-22T07:34:30;28.30;99.90
2579;DHT22;1299;48.282;14.398;2023-06-22T07:36:57;28.10;99.90
2579;DHT22;1299;48.282;14.398;2023-06-22T07:39:24;28.10;99.90
2579;DHT22;1299;48.282;14.398;2023-06-22T07:41:52;28.20;99.90
2579;DHT22;1299;48.282;14.398;2023-06-22T07:44:20;28.30;99.90
2579;DHT22;1299;48.282;14.398;2023-06-22T07:46:47;28.20;99.90
2579;DHT22;1299;48.282;14.398;2023-06-22T07:49:14;28.00;99.90
2579;DHT22;1299;48.282;14.398;2023-06-22T07:51:41;28.50;99.90
2579;DHT22;1299;48.282;14.398;2023-06-22T07:54:09;28.10;99.90
2579;DHT22;1299;48.282;14.398;2023-06-22T07:56:36;28.30;99.90
2579;DHT22;1299;48.282;14.398;2023-06-22T07:59:03;28.40;99.90
2579;DHT22;1299;48.282;14.398;2023-06-22T08:01:32;28.80;99.90
2579;DHT22;1299;48.282;14.398;2023-06-22T08:03:59;28.80;99.90
2579;DHT22;1299;48.282;14.398;2023-06-22T08:06:26;28.60;99.90
2579;DHT22;1299;48.282;14.398;2023-06-22T08:08:53;28.70;99.90
2579;DHT22;1299;48.282;14.398;2023-06-22T08:11:22;28.90;99.90
2579;DHT22;1299;48.282;14.398;2023-06-22T08:13:51;28.90;99.90
2579;DHT22;1299;48.282;14.398;2023-06-22T08:16:18;29.00;99.90
2579;DHT22;1299;48.282;14.398;2023-06-22T08:18:46;29.30;99.90
2579;DHT22;1299;48.282;14.398;2023-06-22T08:21:13;29.20;99.90
2579;DHT22;1299;48.282;14.398;2023-06-22T08:23:40;29.30;99.90
2579;DHT22;1299;48.282;14.398;2023-06-22T08:26:07;29.40;99.90
2579;DHT22;1299;48.282;14.398;2023-06-22T08:28:34;29.30;99.90
2579;DHT22;1299;48.282;14.398;2023-06-22T08:31:02;29.50;99.90
2579;DHT22;1299;48.282;14.398;2023-06-22T08:33:29;29.80;99.90
2579;DHT22;1299;48.282;14.398;2023-06-22T08:35:58;29.50;99.90
2579;DHT22;1299;48.282;14.398;2023-06-22T08:38:25;29.40;99.90
2579;DHT22;1299;48.282;14.398;2023-06-22T08:40:52;29.80;99.90
2579;DHT22;1299;48.282;14.398;2023-06-22T08:43:19;29.60;99.90
2579;DHT22;1299;48.282;14.398;2023-06-22T08:45:46;29.50;99.90
2579;DHT22;1299;48.282;14.398;2023-06-22T08:48:13;29.20;99.90
2579;DHT22;1299;48.282;14.398;2023-06-22T08:50:40;29.30;99.90
2579;DHT22;1299;48.282;14.398;2023-06-22T08:53:08;29.50;99.90
2579;DHT22;1299;48.282;14.398;2023-06-22T08:55:35;29.70;99.90
2579;DHT22;1299;48.282;14.398;2023-06-22T08:58:02;29.80;99.90
2579;DHT22;1299;48.282;14.398;2023-06-22T09:00:30;30.20;99.90
2579;DHT22;1299;48.282;14.398;2023-06-22T09:03:00;30.00;99.90
2579;DHT22;1299;48.282;14.398;2023-06-22T09:05:27;29.60;99.90
2579;DHT22;1299;48.282;14.398;2023-06-22T09:07:56;29.70;99.90
2579;DHT22;1299;48.282;14.398;2023-06-22T09:10:25;29.30;99.90
2579;DHT22;1299;48.282;14.398;2023-06-22T09:12:53;30.00;99.90
2579;DHT22;1299;48.282;14.398;2023-06-22T09:15:20;29.40;99.90
2579;DHT22;1299;48.282;14.398;2023-06-22T09:17:47;29.30;99.90
2579;DHT22;1299;48.282;14.398;2023-06-22T09:20:14;30.00;99.90
2579;DHT22;1299;48.282;14.398;2023-06-22T09:22:41;29.40;99.90
2579;DHT22;1299;48.282;14.398;2023-06-22T09:25:09;29.30;99.90
2579;DHT22;1299;48.282;14.398;2023-06-22T09:27:38;29.10;99.90
2579;DHT22;1299;48.282;14.398;2023-06-22T09:30:06;29.20;99.90
2579;DHT22;1299;48.282;14.398;2023-06-22T09:32:33;29.30;99.90
2579;DHT22;1299;48.282;14.398;2023-06-22T09:35:03;29.20;99.90
2579;DHT22;1299;48.282;14.398;2023-06-22T09:37:32;29.50;99.90
2579;DHT22;1299;48.282;14.398;2023-06-22T09:39:59;29.50;99.90
2579;DHT22;1299;48.282;14.398;2023-06-22T09:42:26;29.70;99.90
2579;DHT22;1299;48.282;14.398;2023-06-22T09:44:54;30.30;99.90
2579;DHT22;1299;48.282;14.398;2023-06-22T09:47:21;30.50;99.90
2579;DHT22;1299;48.282;14.398;2023-06-22T09:49:48;30.10;99.90
2579;DHT22;1299;48.282;14.398;2023-06-22T09:52:15;30.60;99.90
2579;DHT22;1299;48.282;14.398;2023-06-22T09:54:42;30.20;99.90
2579;DHT22;1299;48.282;14.398;2023-06-22T09:57:09;30.30;99.90
2579;DHT22;1299;48.282;14.398;2023-06-22T09:59:36;30.30;99.90
2579;DHT22;1299;48.282;14.398;2023-06-22T10:02:05;30.30;99.90
2579;DHT22;1299;48.282;14.398;2023-06-22T10:04:33;30.40;99.90
2579;DHT22;1299;48.282;14.398;2023-06-22T10:07:00;30.40;99.90
2579;DHT22;1299;48.282;14.398;2023-06-22T10:09:27;30.50;99.90
2579;DHT22;1299;48.282;14.398;2023-06-22T10:11:53;30.50;99.90
2579;DHT22;1299;48.282;14.398;2023-06-22T10:14:20;30.60;99.90
2579;DHT22;1299;48.282;14.398;2023-06-22T10:16:48;30.80;99.90
2579;DHT22;1299;48.282;14.398;2023-06-22T10:19:17;30.50;99.90
2579;DHT22;1299;48.282;14.398;2023-06-22T10:21:44;30.80;99.90
2579;DHT22;1299;48.282;14.398;2023-06-22T10:24:11;30.40;99.80
2579;DHT22;1299;48.282;14.398;2023-06-22T10:26:38;30.60;99.90
2579;DHT22;1299;48.282;14.398;2023-06-22T10:29:05;30.50;99.90
2579;DHT22;1299;48.282;14.398;2023-06-22T10:31:31;30.50;99.90
2579;DHT22;1299;48.282;14.398;2023-06-22T10:33:58;30.30;99.90
2579;DHT22;1299;48.282;14.398;2023-06-22T10:36:27;30.90;99.90
2579;DHT22;1299;48.282;14.398;2023-06-22T10:38:54;30.70;99.90
2579;DHT22;1299;48.282;14.398;2023-06-22T10:41:21;30.80;99.90
2579;DHT22;1299;48.282;14.398;2023-06-22T10:43:48;30.90;99.90
2579;DHT22;1299;48.282;14.398;2023-06-22T10:46:15;31.00;99.90
2579;DHT22;1299;48.282;14.398;2023-06-22T10:48:42;31.10;99.90
2579;DHT22;1299;48.282;14.398;2023-06-22T10:51:09;30.80;99.00
2579;DHT22;1299;48.282;14.398;2023-06-22T10:53:37;30.60;98.80
2579;DHT22;1299;48.282;14.398;2023-06-22T10:56:04;30.90;99.90
2579;DHT22;1299;48.282;14.398;2023-06-22T10:58:31;30.90;99.90
2579;DHT22;1299;48.282;14.398;2023-06-22T11:00:58;31.00;99.90
2579;DHT22;1299;48.282;14.398;2023-06-22T11:03:25;31.10;99.90
2579;DHT22;1299;48.282;14.398;2023-06-22T11:05:52;31.10;99.10
2579;DHT22;1299;48.282;14.398;2023-06-22T11:08:19;31.50;99.90
2579;DHT22;1299;48.282;14.398;2023-06-22T11:10:47;31.30;98.80
2579;DHT22;1299;48.282;14.398;2023-06-22T11:13:14;31.60;99.90
2579;DHT22;1299;48.282;14.398;2023-06-22T11:15:41;31.50;99.90
2579;DHT22;1299;48.282;14.398;2023-06-22T11:18:08;31.60;98.90
2579;DHT22;1299;48.282;14.398;2023-06-22T11:20:35;31.90;99.10
2579;DHT22;1299;48.282;14.398;2023-06-22T11:23:04;31.90;98.00
2579;DHT22;1299;48.282;14.398;2023-06-22T11:25:32;31.50;98.40
2579;DHT22;1299;48.282;14.398;2023-06-22T11:28:02;31.40;99.40
2579;DHT22;1299;48.282;14.398;2023-06-22T11:30:29;31.40;99.70
2579;DHT22;1299;48.282;14.398;2023-06-22T11:32:56;31.70;98.30
2579;DHT22;1299;48.282;14.398;2023-06-22T11:35:24;31.90;98.60
2579;DHT22;1299;48.282;14.398;2023-06-22T11:37:51;31.80;98.90
2579;DHT22;1299;48.282;14.398;2023-06-22T11:40:18;32.20;98.70
2579;DHT22;1299;48.282;14.398;2023-06-22T11:42:45;31.70;97.50
2579;DHT22;1299;48.282;14.398;2023-06-22T11:45:13;31.50;97.60
2579;DHT22;1299;48.282;14.398;2023-06-22T11:47:40;31.70;98.00
2579;DHT22;1299;48.282;14.398;2023-06-22T11:50:14;32.00;98.80
2579;DHT22;1299;48.282;14.398;2023-06-22T11:52:41;31.80;98.70
2579;DHT22;1299;48.282;14.398;2023-06-22T11:55:08;31.90;99.20
2579;DHT22;1299;48.282;14.398;2023-06-22T11:57:36;31.70;98.60
2579;DHT22;1299;48.282;14.398;2023-06-22T12:00:04;31.60;99.20
2579;DHT22;1299;48.282;14.398;2023-06-22T12:02:43;31.70;98.70
2579;DHT22;1299;48.282;14.398;2023-06-22T12:05:11;31.80;98.00
2579;DHT22;1299;48.282;14.398;2023-06-22T12:07:38;31.70;99.10
2579;DHT22;1299;48.282;14.398;2023-06-22T12:10:06;31.70;99.30
2579;DHT22;1299;48.282;14.398;2023-06-22T12:12:33;31.90;99.20
2579;DHT22;1299;48.282;14.398;2023-06-22T12:15:00;32.00;99.60
2579;DHT22;1299;48.282;14.398;2023-06-22T12:17:29;31.70;99.10
2579;DHT22;1299;48.282;14.398;2023-06-22T12:19:58;31.50;99.40
2579;DHT22;1299;48.282;14.398;2023-06-22T12:22:25;31.70;99.80
2579;DHT22;1299;48.282;14.398;2023-06-22T12:24:52;31.90;99.30
2579;DHT22;1299;48.282;14.398;2023-06-22T12:27:25;31.60;99.20
2579;DHT22;1299;48.282;14.398;2023-06-22T12:29:56;31.70;99.20
2579;DHT22;1299;48.282;14.398;2023-06-22T12:32:23;32.00;99.90
2579;DHT22;1299;48.282;14.398;2023-06-22T12:34:51;32.00;99.20
2579;DHT22;1299;48.282;14.398;2023-06-22T12:37:19;31.90;99.50
2579;DHT22;1299;48.282;14.398;2023-06-22T12:39:46;32.20;99.70
2579;DHT22;1299;48.282;14.398;2023-06-22T12:42:13;32.20;98.90
2579;DHT22;1299;48.282;14.398;2023-06-22T12:44:40;32.40;98.70
2579;DHT22;1299;48.282;14.398;2023-06-22T12:47:08;32.50;99.80
2579;DHT22;1299;48.282;14.398;2023-06-22T12:49:35;32.10;98.10
2579;DHT22;1299;48.282;14.398;2023-06-22T12:52:02;32.10;98.30
2579;DHT22;1299;48.282;14.398;2023-06-22T12:54:30;32.10;98.40
2579;DHT22;1299;48.282;14.398;2023-06-22T12:56:57;32.00;99.00
2579;DHT22;1299;48.282;14.398;2023-06-22T12:59:24;32.10;99.80
2579;DHT22;1299;48.282;14.398;2023-06-22T13:01:52;32.00;99.70
2579;DHT22;1299;48.282;14.398;2023-06-22T13:04:19;31.90;99.10
2579;DHT22;1299;48.282;14.398;2023-06-22T13:06:46;32.20;99.40
2579;DHT22;1299;48.282;14.398;2023-06-22T13:09:14;32.20;98.30
2579;DHT22;1299;48.282;14.398;2023-06-22T13:11:43;32.20;99.30
2579;DHT22;1299;48.282;14.398;2023-06-22T13:14:10;32.00;99.60
2579;DHT22;1299;48.282;14.398;2023-06-22T13:16:37;32.00;99.20
2579;DHT22;1299;48.282;14.398;2023-06-22T13:19:04;31.90;99.90
2579;DHT22;1299;48.282;14.398;2023-06-22T13:21:31;31.90;99.90
2579;DHT22;1299;48.282;14.398;2023-06-22T13:23:59;32.10;99.90
2579;DHT22;1299;48.282;14.398;2023-06-22T13:26:26;32.30;99.90
2579;DHT22;1299;48.282;14.398;2023-06-22T13:28:56;32.00;99.90
2579;DHT22;1299;48.282;14.398;2023-06-22T13:31:23;32.00;99.90
2579;DHT22;1299;48.282;14.398;2023-06-22T13:33:50;32.00;99.90
2579;DHT22;1299;48.282;14.398;2023-06-22T13:36:18;32.10;99.50
2579;DHT22;1299;48.282;14.398;2023-06-22T13:38:45;32.10;99.90
2579;DHT22;1299;48.282;14.398;2023-06-22T13:41:12;32.10;99.30
2579;DHT22;1299;48.282;14.398;2023-06-22T13:43:39;32.40;99.90
2579;DHT22;1299;48.282;14.398;2023-06-22T13:46:08;32.40;99.40
2579;DHT22;1299;48.282;14.398;2023-06-22T13:48:35;32.40;99.90
2579;DHT22;1299;48.282;14.398;2023-06-22T13:51:02;32.30;99.90
2579;DHT22;1299;48.282;14.398;2023-06-22T13:53:29;32.50;99.60
2579;DHT22;1299;48.282;14.398;2023-06-22T13:55:56;31.90;99.50
2579;DHT22;1299;48.282;14.398;2023-06-22T13:58:23;32.30;99.90
2579;DHT22;1299;48.282;14.398;2023-06-22T14:00:50;31.90;99.90
2579;DHT22;1299;48.282;14.398;2023-06-22T14:03:18;32.10;99.90
2579;DHT22;1299;48.282;14.398;2023-06-22T14:05:45;32.00;99.90
2579;DHT22;1299;48.282;14.398;2023-06-22T14:08:12;32.00;99.90
2579;DHT22;1299;48.282;14.398;2023-06-22T14:10:40;32.00;99.90
2579;DHT22;1299;48.282;14.398;2023-06-22T14:13:07;32.00;99.90
2579;DHT22;1299;48.282;14.398;2023-06-22T14:15:34;31.80;99.90
2579;DHT22;1299;48.282;14.398;2023-06-22T14:18:01;32.00;99.90
2579;DHT22;1299;48.282;14.398;2023-06-22T14:20:29;32.20;99.90
2579;DHT22;1299;48.282;14.398;2023-06-22T14:22:56;31.90;99.90
2579;DHT22;1299;48.282;14.398;2023-06-22T14:25:23;32.00;99.90
2579;DHT22;1299;48.282;14.398;2023-06-22T14:27:50;32.10;99.90
2579;DHT22;1299;48.282;14.398;2023-06-22T14:30:17;32.00;99.90
2579;DHT22;1299;48.282;14.398;2023-06-22T14:32:44;31.80;99.90
2579;DHT22;1299;48.282;14.398;2023-06-22T14:35:11;32.00;99.90
2579;DHT22;1299;48.282;14.398;2023-06-22T14:37:40;32.00;99.90
2579;DHT22;1299;48.282;14.398;2023-06-22T14:40:07;31.90;99.90
2579;DHT22;1299;48.282;14.398;2023-06-22T14:42:34;32.10;99.90
2579;DHT22;1299;48.282;14.398;2023-06-22T14:45:01;31.90;99.90
2579;DHT22;1299;48.282;14.398;2023-06-22T14:47:28;31.90;99.90
2579;DHT22;1299;48.282;14.398;2023-06-22T14:49:55;32.10;99.90
2579;DHT22;1299;48.282;14.398;2023-06-22T14:52:22;31.80;99.90
2579;DHT22;1299;48.282;14.398;2023-06-22T14:54:50;31.90;99.90
2579;DHT22;1299;48.282;14.398;2023-06-22T14:57:18;31.80;99.90
2579;DHT22;1299;48.282;14.398;2023-06-22T14:59:46;31.90;99.90
2579;DHT22;1299;48.282;14.398;2023-06-22T15:02:13;32.00;99.90
2579;DHT22;1299;48.282;14.398;2023-06-22T15:04:40;31.80;99.90
2579;DHT22;1299;48.282;14.398;2023-06-22T15:07:07;31.80;99.90
2579;DHT22;1299;48.282;14.398;2023-06-22T15:09:34;31.90;99.90
2579;DHT22;1299;48.282;14.398;2023-06-22T15:12:02;31.70;99.90
2579;DHT22;1299;48.282;14.398;2023-06-22T15:14:31;31.80;99.90
2579;DHT22;1299;48.282;14.398;2023-06-22T15:16:58;32.00;99.90
2579;DHT22;1299;48.282;14.398;2023-06-22T15:19:25;31.90;99.90
2579;DHT22;1299;48.282;14.398;2023-06-22T15:21:52;31.90;99.90
2579;DHT22;1299;48.282;14.398;2023-06-22T15:24:19;32.00;99.90
2579;DHT22;1299;48.282;14.398;2023-06-22T15:26:46;32.10;99.90
2579;DHT22;1299;48.282;14.398;2023-06-22T15:29:14;32.10;99.90
2579;DHT22;1299;48.282;14.398;2023-06-22T15:31:41;32.10;99.90
2579;DHT22;1299;48.282;14.398;2023-06-22T15:34:08;32.00;99.90
2579;DHT22;1299;48.282;14.398;2023-06-22T15:36:35;31.80;99.90
2579;DHT22;1299;48.282;14.398;2023-06-22T15:39:02;31.80;99.90
2579;DHT22;1299;48.282;14.398;2023-06-22T15:41:29;32.10;99.90
2579;DHT22;1299;48.282;14.398;2023-06-22T15:43:56;32.10;99.90
2579;DHT22;1299;48.282;14.398;2023-06-22T15:46:24;32.10;99.90
2579;DHT22;1299;48.282;14.398;2023-06-22T15:48:51;32.10;99.90